Terminal Aerodrome Forecast
Issued by NWS Grand Rapids, MI

Home | Current Version | Previous Version | Text Only | Print | Product List | Glossary On
Versions: 1 2 3 4 5 6 7 8 9 10 11 12 13
000
FTUS43 KGRR 250500
TAFGRR
TAF
KGRR 250540Z 2506/2606 11012KT 6SM -RA OVC070
     FM251100 12007KT 5SM -RA OVC040
     FM251400 28008KT P6SM OVC025
     FM251700 29012G24KT P6SM SCT040
     FM260100 24007KT P6SM SCT040=

USA.gov is the U.S. government's official web portal to all federal, state and local government web resources and services.